CZFN/ZFN METAR and TAF weather

Enter ICAO airport designator
Station Type Date Time Source
CZFN METAR 2019/08/23 23:00 UTC NOAA

CZFN 232300Z 13002KT 15SM SCT110 BKN210 16/05 A2946 RMK AC4CI1 LAST STFD OBS/NEXT 261500 SLP982 DENSITY ALT 1100FT


Station Type Date Time Source
CZFN Decoded METAR 2019/08/23 23:00 UTC NOAA

Station name not available
Aug 23, 2019 - 07:00 PM EDT / 2019.08.23 2300 UTC
Wind: from the SE (130 degrees) at 2 MPH (2 KT):0
Visibility: 15 mile(s):0
Sky conditions: mostly cloudy
Temperature: 60 F (16 C)
Dew Point: 41 F (5 C)
Relative Humidity: 47%
Pressure (altimeter): 29.46 in. Hg (997 hPa)
ob: CZFN 232300Z 13002KT 15SM SCT110 BKN210 16/05 A2946 RMK AC4CI1 LAST STFD OBS/NEXT 261500 SLP982 DENSITY ALT 1100FT
cycle: 23

Station Type Date Time Source
CZFN TAF UTC NOAA

Error!

Example: see airport list